sensor_id;sensor_type;location;lat;lon;timestamp;temperature;humidity
25320;DHT22;13256;49.012;8.610;2022-09-29T00:01:25;7.20;99.90
25320;DHT22;13256;49.012;8.610;2022-09-29T00:03:54;7.10;99.90
25320;DHT22;13256;49.012;8.610;2022-09-29T00:06:22;7.10;99.90
25320;DHT22;13256;49.012;8.610;2022-09-29T00:09:14;7.10;99.90
25320;DHT22;13256;49.012;8.610;2022-09-29T00:11:44;7.10;99.90
25320;DHT22;13256;49.012;8.610;2022-09-29T00:14:11;7.10;99.90
25320;DHT22;13256;49.012;8.610;2022-09-29T00:16:41;7.10;99.90
25320;DHT22;13256;49.012;8.610;2022-09-29T00:19:10;7.10;99.90
25320;DHT22;13256;49.012;8.610;2022-09-29T00:21:42;7.10;99.90
25320;DHT22;13256;49.012;8.610;2022-09-29T00:24:22;7.10;99.90
25320;DHT22;13256;49.012;8.610;2022-09-29T00:27:09;7.10;99.90
25320;DHT22;13256;49.012;8.610;2022-09-29T00:29:39;7.00;99.90
25320;DHT22;13256;49.012;8.610;2022-09-29T00:32:10;6.90;99.90
25320;DHT22;13256;49.012;8.610;2022-09-29T00:34:42;6.80;99.90
25320;DHT22;13256;49.012;8.610;2022-09-29T00:37:10;6.80;99.90
25320;DHT22;13256;49.012;8.610;2022-09-29T00:39:40;6.80;99.90
25320;DHT22;13256;49.012;8.610;2022-09-29T00:42:10;6.70;99.90
25320;DHT22;13256;49.012;8.610;2022-09-29T00:47:18;6.70;99.90
25320;DHT22;13256;49.012;8.610;2022-09-29T00:50:04;6.60;99.90
25320;DHT22;13256;49.012;8.610;2022-09-29T00:52:55;6.60;99.90
25320;DHT22;13256;49.012;8.610;2022-09-29T00:55:47;6.60;99.90
25320;DHT22;13256;49.012;8.610;2022-09-29T00:58:38;6.70;99.90
25320;DHT22;13256;49.012;8.610;2022-09-29T01:01:06;6.70;99.90
25320;DHT22;13256;49.012;8.610;2022-09-29T01:04:04;6.70;99.90
25320;DHT22;13256;49.012;8.610;2022-09-29T01:06:39;6.60;99.90
25320;DHT22;13256;49.012;8.610;2022-09-29T01:09:40;6.50;99.90
25320;DHT22;13256;49.012;8.610;2022-09-29T01:12:36;6.50;99.90
25320;DHT22;13256;49.012;8.610;2022-09-29T01:15:04;6.50;99.90
25320;DHT22;13256;49.012;8.610;2022-09-29T01:17:31;6.50;99.90
25320;DHT22;13256;49.012;8.610;2022-09-29T01:20:13;6.50;99.90
25320;DHT22;13256;49.012;8.610;2022-09-29T01:23:01;6.50;99.90
25320;DHT22;13256;49.012;8.610;2022-09-29T01:31:22;6.60;99.90
25320;DHT22;13256;49.012;8.610;2022-09-29T01:34:20;6.60;99.90
25320;DHT22;13256;49.012;8.610;2022-09-29T01:40:14;6.70;99.90
25320;DHT22;13256;49.012;8.610;2022-09-29T01:42:51;6.70;99.90
25320;DHT22;13256;49.012;8.610;2022-09-29T01:45:31;6.80;99.90
25320;DHT22;13256;49.012;8.610;2022-09-29T01:48:10;6.80;99.90
25320;DHT22;13256;49.012;8.610;2022-09-29T01:50:42;6.80;99.90
25320;DHT22;13256;49.012;8.610;2022-09-29T01:53:22;6.90;99.90
25320;DHT22;13256;49.012;8.610;2022-09-29T01:55:59;6.90;99.90
25320;DHT22;13256;49.012;8.610;2022-09-29T01:58:40;7.00;99.90
25320;DHT22;13256;49.012;8.610;2022-09-29T02:01:16;7.10;99.90
25320;DHT22;13256;49.012;8.610;2022-09-29T02:03:50;7.10;99.90
25320;DHT22;13256;49.012;8.610;2022-09-29T02:06:32;7.10;99.90
25320;DHT22;13256;49.012;8.610;2022-09-29T02:09:10;7.10;99.90
25320;DHT22;13256;49.012;8.610;2022-09-29T02:11:39;7.20;99.90
25320;DHT22;13256;49.012;8.610;2022-09-29T02:14:11;7.20;99.90
25320;DHT22;13256;49.012;8.610;2022-09-29T02:16:53;7.30;99.90
25320;DHT22;13256;49.012;8.610;2022-09-29T02:19:26;7.30;99.90
25320;DHT22;13256;49.012;8.610;2022-09-29T02:21:57;7.40;99.90
25320;DHT22;13256;49.012;8.610;2022-09-29T02:24:30;7.40;99.90
25320;DHT22;13256;49.012;8.610;2022-09-29T02:26:57;7.40;99.90
25320;DHT22;13256;49.012;8.610;2022-09-29T02:29:24;7.40;99.90
25320;DHT22;13256;49.012;8.610;2022-09-29T02:32:00;7.50;99.90
25320;DHT22;13256;49.012;8.610;2022-09-29T02:34:31;7.50;99.90
25320;DHT22;13256;49.012;8.610;2022-09-29T02:40:32;7.40;99.90
25320;DHT22;13256;49.012;8.610;2022-09-29T02:43:31;7.40;99.90
25320;DHT22;13256;49.012;8.610;2022-09-29T02:46:31;7.40;99.90
25320;DHT22;13256;49.012;8.610;2022-09-29T02:51:56;7.40;99.90
25320;DHT22;13256;49.012;8.610;2022-09-29T02:55:13;7.40;99.90
25320;DHT22;13256;49.012;8.610;2022-09-29T03:00:26;7.40;99.90
25320;DHT22;13256;49.012;8.610;2022-09-29T03:02:57;7.40;99.90
25320;DHT22;13256;49.012;8.610;2022-09-29T03:05:26;7.40;99.90
25320;DHT22;13256;49.012;8.610;2022-09-29T03:07:56;7.30;99.90
25320;DHT22;13256;49.012;8.610;2022-09-29T03:10:25;7.30;99.90
25320;DHT22;13256;49.012;8.610;2022-09-29T03:12:57;7.30;99.90
25320;DHT22;13256;49.012;8.610;2022-09-29T03:15:48;7.30;99.90
25320;DHT22;13256;49.012;8.610;2022-09-29T03:18:15;7.30;99.90
25320;DHT22;13256;49.012;8.610;2022-09-29T03:20:45;7.30;99.90
25320;DHT22;13256;49.012;8.610;2022-09-29T03:23:11;7.40;99.90
25320;DHT22;13256;49.012;8.610;2022-09-29T03:25:46;7.40;99.90
25320;DHT22;13256;49.012;8.610;2022-09-29T03:28:16;7.40;99.90
25320;DHT22;13256;49.012;8.610;2022-09-29T03:30:43;7.40;99.90
25320;DHT22;13256;49.012;8.610;2022-09-29T03:33:14;7.40;99.90
25320;DHT22;13256;49.012;8.610;2022-09-29T03:35:43;7.40;99.90
25320;DHT22;13256;49.012;8.610;2022-09-29T03:38:10;7.40;99.90
25320;DHT22;13256;49.012;8.610;2022-09-29T03:40:37;7.40;99.90
25320;DHT22;13256;49.012;8.610;2022-09-29T03:43:05;7.50;99.90
25320;DHT22;13256;49.012;8.610;2022-09-29T03:45:32;7.50;99.90
25320;DHT22;13256;49.012;8.610;2022-09-29T03:48:19;7.50;99.90
25320;DHT22;13256;49.012;8.610;2022-09-29T03:50:50;7.50;99.90
25320;DHT22;13256;49.012;8.610;2022-09-29T03:53:19;7.50;99.90
25320;DHT22;13256;49.012;8.610;2022-09-29T03:55:47;7.50;99.90
25320;DHT22;13256;49.012;8.610;2022-09-29T03:58:17;7.50;99.90
25320;DHT22;13256;49.012;8.610;2022-09-29T04:00:53;7.50;99.90
25320;DHT22;13256;49.012;8.610;2022-09-29T04:03:20;7.60;99.90
25320;DHT22;13256;49.012;8.610;2022-09-29T04:05:47;7.50;99.90
25320;DHT22;13256;49.012;8.610;2022-09-29T04:08:15;7.50;99.90
25320;DHT22;13256;49.012;8.610;2022-09-29T04:10:45;7.50;99.90
25320;DHT22;13256;49.012;8.610;2022-09-29T04:13:44;7.50;99.90
25320;DHT22;13256;49.012;8.610;2022-09-29T04:16:12;7.50;99.90
25320;DHT22;13256;49.012;8.610;2022-09-29T04:18:39;7.40;99.90
25320;DHT22;13256;49.012;8.610;2022-09-29T04:21:07;7.40;99.90
25320;DHT22;13256;49.012;8.610;2022-09-29T04:23:35;7.30;99.90
25320;DHT22;13256;49.012;8.610;2022-09-29T04:26:04;7.30;99.90
25320;DHT22;13256;49.012;8.610;2022-09-29T04:28:32;7.30;99.90
25320;DHT22;13256;49.012;8.610;2022-09-29T04:31:00;7.30;99.90
25320;DHT22;13256;49.012;8.610;2022-09-29T04:33:27;7.30;99.90
25320;DHT22;13256;49.012;8.610;2022-09-29T04:35:59;7.30;99.90
25320;DHT22;13256;49.012;8.610;2022-09-29T04:38:39;7.30;99.90
25320;DHT22;13256;49.012;8.610;2022-09-29T04:41:08;7.30;99.90
25320;DHT22;13256;49.012;8.610;2022-09-29T04:43:35;7.30;99.90
25320;DHT22;13256;49.012;8.610;2022-09-29T04:46:06;7.30;99.90
25320;DHT22;13256;49.012;8.610;2022-09-29T04:48:34;7.30;99.90
25320;DHT22;13256;49.012;8.610;2022-09-29T04:51:04;7.30;99.90
25320;DHT22;13256;49.012;8.610;2022-09-29T04:53:31;7.30;99.90
25320;DHT22;13256;49.012;8.610;2022-09-29T04:56:04;7.30;99.90
25320;DHT22;13256;49.012;8.610;2022-09-29T04:58:32;7.20;99.90
25320;DHT22;13256;49.012;8.610;2022-09-29T05:01:10;7.10;99.90
25320;DHT22;13256;49.012;8.610;2022-09-29T05:03:44;7.10;99.90
25320;DHT22;13256;49.012;8.610;2022-09-29T05:06:10;7.10;99.90
25320;DHT22;13256;49.012;8.610;2022-09-29T05:08:37;7.10;99.90
25320;DHT22;13256;49.012;8.610;2022-09-29T05:11:07;7.10;99.90
25320;DHT22;13256;49.012;8.610;2022-09-29T05:13:34;7.10;99.90
25320;DHT22;13256;49.012;8.610;2022-09-29T05:16:02;7.10;99.90
25320;DHT22;13256;49.012;8.610;2022-09-29T05:18:30;7.10;99.90
25320;DHT22;13256;49.012;8.610;2022-09-29T05:21:05;7.10;99.90
25320;DHT22;13256;49.012;8.610;2022-09-29T05:23:55;7.10;99.90
25320;DHT22;13256;49.012;8.610;2022-09-29T05:26:24;7.20;99.90
25320;DHT22;13256;49.012;8.610;2022-09-29T05:28:52;7.10;99.90
25320;DHT22;13256;49.012;8.610;2022-09-29T05:31:19;7.10;99.90
25320;DHT22;13256;49.012;8.610;2022-09-29T05:33:48;7.00;99.90
25320;DHT22;13256;49.012;8.610;2022-09-29T05:36:18;6.90;99.90
25320;DHT22;13256;49.012;8.610;2022-09-29T05:38:49;6.90;99.90
25320;DHT22;13256;49.012;8.610;2022-09-29T05:41:22;6.90;99.90
25320;DHT22;13256;49.012;8.610;2022-09-29T05:43:54;6.90;99.90
25320;DHT22;13256;49.012;8.610;2022-09-29T05:46:21;6.90;99.90
25320;DHT22;13256;49.012;8.610;2022-09-29T05:48:49;6.80;99.90
25320;DHT22;13256;49.012;8.610;2022-09-29T05:51:21;6.80;99.90
25320;DHT22;13256;49.012;8.610;2022-09-29T05:53:53;6.80;99.90
25320;DHT22;13256;49.012;8.610;2022-09-29T05:56:23;6.80;99.90
25320;DHT22;13256;49.012;8.610;2022-09-29T05:58:54;6.80;99.90
25320;DHT22;13256;49.012;8.610;2022-09-29T06:01:25;6.80;99.90
25320;DHT22;13256;49.012;8.610;2022-09-29T06:03:55;6.80;99.90
25320;DHT22;13256;49.012;8.610;2022-09-29T06:06:24;6.90;99.90
25320;DHT22;13256;49.012;8.610;2022-09-29T06:08:54;7.00;99.90
25320;DHT22;13256;49.012;8.610;2022-09-29T06:11:23;7.00;99.90
25320;DHT22;13256;49.012;8.610;2022-09-29T06:14:36;7.00;99.90
25320;DHT22;13256;49.012;8.610;2022-09-29T06:23:32;7.10;99.90
25320;DHT22;13256;49.012;8.610;2022-09-29T06:26:03;7.20;99.90
25320;DHT22;13256;49.012;8.610;2022-09-29T06:28:31;7.20;99.90
25320;DHT22;13256;49.012;8.610;2022-09-29T06:31:10;7.30;99.90
25320;DHT22;13256;49.012;8.610;2022-09-29T06:33:37;7.40;99.90
25320;DHT22;13256;49.012;8.610;2022-09-29T06:36:21;7.50;99.90
25320;DHT22;13256;49.012;8.610;2022-09-29T06:39:11;7.50;99.90
25320;DHT22;13256;49.012;8.610;2022-09-29T06:41:38;7.60;99.90
25320;DHT22;13256;49.012;8.610;2022-09-29T06:44:15;7.60;99.90
25320;DHT22;13256;49.012;8.610;2022-09-29T06:47:10;7.70;99.90
25320;DHT22;13256;49.012;8.610;2022-09-29T06:49:37;7.70;99.90
25320;DHT22;13256;49.012;8.610;2022-09-29T06:52:04;7.80;99.90
25320;DHT22;13256;49.012;8.610;2022-09-29T06:54:47;7.90;99.90
25320;DHT22;13256;49.012;8.610;2022-09-29T06:57:14;7.90;99.90
25320;DHT22;13256;49.012;8.610;2022-09-29T06:59:44;8.00;99.90
25320;DHT22;13256;49.012;8.610;2022-09-29T07:02:12;8.00;99.90
25320;DHT22;13256;49.012;8.610;2022-09-29T07:04:43;8.00;99.90
25320;DHT22;13256;49.012;8.610;2022-09-29T07:07:14;8.10;99.90
25320;DHT22;13256;49.012;8.610;2022-09-29T07:09:43;8.20;99.90
25320;DHT22;13256;49.012;8.610;2022-09-29T07:12:14;8.30;99.90
25320;DHT22;13256;49.012;8.610;2022-09-29T07:14:40;8.40;99.90
25320;DHT22;13256;49.012;8.610;2022-09-29T07:17:07;8.50;99.90
25320;DHT22;13256;49.012;8.610;2022-09-29T07:19:36;8.60;99.90
25320;DHT22;13256;49.012;8.610;2022-09-29T07:22:03;8.70;99.90
25320;DHT22;13256;49.012;8.610;2022-09-29T07:24:35;8.70;99.90
25320;DHT22;13256;49.012;8.610;2022-09-29T07:27:02;8.70;99.90
25320;DHT22;13256;49.012;8.610;2022-09-29T07:29:28;8.80;99.90
25320;DHT22;13256;49.012;8.610;2022-09-29T07:31:58;8.80;99.90
25320;DHT22;13256;49.012;8.610;2022-09-29T07:34:32;8.90;99.90
25320;DHT22;13256;49.012;8.610;2022-09-29T07:37:03;8.90;99.90
25320;DHT22;13256;49.012;8.610;2022-09-29T07:39:34;8.90;99.90
25320;DHT22;13256;49.012;8.610;2022-09-29T07:42:08;9.00;99.90
25320;DHT22;13256;49.012;8.610;2022-09-29T07:44:35;9.10;99.90
25320;DHT22;13256;49.012;8.610;2022-09-29T07:47:03;9.20;99.90
25320;DHT22;13256;49.012;8.610;2022-09-29T07:49:30;9.30;99.90
25320;DHT22;13256;49.012;8.610;2022-09-29T07:52:00;9.50;99.90
25320;DHT22;13256;49.012;8.610;2022-09-29T07:54:31;9.70;99.90
25320;DHT22;13256;49.012;8.610;2022-09-29T07:56:58;9.90;99.90
25320;DHT22;13256;49.012;8.610;2022-09-29T07:59:26;10.10;99.90
25320;DHT22;13256;49.012;8.610;2022-09-29T08:02:01;10.10;99.90
25320;DHT22;13256;49.012;8.610;2022-09-29T08:04:34;10.30;99.90
25320;DHT22;13256;49.012;8.610;2022-09-29T08:07:01;10.40;99.90
25320;DHT22;13256;49.012;8.610;2022-09-29T08:09:33;10.50;99.90
25320;DHT22;13256;49.012;8.610;2022-09-29T08:12:08;10.50;99.90
25320;DHT22;13256;49.012;8.610;2022-09-29T08:14:34;10.60;99.90
25320;DHT22;13256;49.012;8.610;2022-09-29T08:17:10;10.80;99.90
25320;DHT22;13256;49.012;8.610;2022-09-29T08:22:52;11.00;99.90
25320;DHT22;13256;49.012;8.610;2022-09-29T08:25:22;11.10;99.90
25320;DHT22;13256;49.012;8.610;2022-09-29T08:27:52;11.20;99.90
25320;DHT22;13256;49.012;8.610;2022-09-29T08:30:34;11.30;99.90
25320;DHT22;13256;49.012;8.610;2022-09-29T08:33:05;11.40;99.90
25320;DHT22;13256;49.012;8.610;2022-09-29T08:35:40;11.40;99.90
25320;DHT22;13256;49.012;8.610;2022-09-29T08:38:06;11.50;99.90
25320;DHT22;13256;49.012;8.610;2022-09-29T08:40:35;11.60;99.90
25320;DHT22;13256;49.012;8.610;2022-09-29T08:43:17;11.80;99.90
25320;DHT22;13256;49.012;8.610;2022-09-29T08:46:09;12.10;99.90
25320;DHT22;13256;49.012;8.610;2022-09-29T08:48:43;12.20;99.90
25320;DHT22;13256;49.012;8.610;2022-09-29T08:51:34;12.50;99.90
25320;DHT22;13256;49.012;8.610;2022-09-29T09:00:03;13.00;99.90
25320;DHT22;13256;49.012;8.610;2022-09-29T09:20:14;14.70;99.90
25320;DHT22;13256;49.012;8.610;2022-09-29T09:25:54;14.60;99.90
25320;DHT22;13256;49.012;8.610;2022-09-29T09:31:33;14.00;99.90
25320;DHT22;13256;49.012;8.610;2022-09-29T09:34:26;13.70;99.90
25320;DHT22;13256;49.012;8.610;2022-09-29T09:37:28;13.50;99.90
25320;DHT22;13256;49.012;8.610;2022-09-29T09:40:16;13.40;99.90
25320;DHT22;13256;49.012;8.610;2022-09-29T09:42:51;13.20;99.90
25320;DHT22;13256;49.012;8.610;2022-09-29T09:45:38;13.20;99.90
25320;DHT22;13256;49.012;8.610;2022-09-29T09:48:42;13.20;99.90
25320;DHT22;13256;49.012;8.610;2022-09-29T09:53:59;13.50;99.90
25320;DHT22;13256;49.012;8.610;2022-09-29T09:59:42;13.80;99.90
25320;DHT22;13256;49.012;8.610;2022-09-29T10:02:18;14.00;99.90
25320;DHT22;13256;49.012;8.610;2022-09-29T10:04:53;14.10;99.90
25320;DHT22;13256;49.012;8.610;2022-09-29T10:07:27;14.20;99.90
25320;DHT22;13256;49.012;8.610;2022-09-29T10:09:56;14.40;99.90
25320;DHT22;13256;49.012;8.610;2022-09-29T10:12:30;14.90;99.90
25320;DHT22;13256;49.012;8.610;2022-09-29T10:15:03;15.20;99.90
25320;DHT22;13256;49.012;8.610;2022-09-29T10:17:38;15.40;99.90
25320;DHT22;13256;49.012;8.610;2022-09-29T10:20:08;15.60;99.90
25320;DHT22;13256;49.012;8.610;2022-09-29T10:22:37;15.50;99.90
25320;DHT22;13256;49.012;8.610;2022-09-29T10:25:19;15.40;99.90
25320;DHT22;13256;49.012;8.610;2022-09-29T10:27:56;15.20;99.90
25320;DHT22;13256;49.012;8.610;2022-09-29T10:30:33;15.20;99.90
25320;DHT22;13256;49.012;8.610;2022-09-29T10:33:04;15.20;99.90
25320;DHT22;13256;49.012;8.610;2022-09-29T10:35:41;15.20;99.90
25320;DHT22;13256;49.012;8.610;2022-09-29T10:38:17;15.30;99.90
25320;DHT22;13256;49.012;8.610;2022-09-29T10:40:58;15.50;99.90
25320;DHT22;13256;49.012;8.610;2022-09-29T10:43:34;15.60;99.90
25320;DHT22;13256;49.012;8.610;2022-09-29T10:46:03;15.70;99.90
25320;DHT22;13256;49.012;8.610;2022-09-29T10:48:31;15.80;99.90
25320;DHT22;13256;49.012;8.610;2022-09-29T10:51:18;15.90;99.90
25320;DHT22;13256;49.012;8.610;2022-09-29T10:53:48;15.90;99.90
25320;DHT22;13256;49.012;8.610;2022-09-29T10:56:34;16.00;99.90
25320;DHT22;13256;49.012;8.610;2022-09-29T10:59:03;16.10;99.90
25320;DHT22;13256;49.012;8.610;2022-09-29T11:01:41;16.20;99.90
25320;DHT22;13256;49.012;8.610;2022-09-29T11:04:22;16.00;99.90
25320;DHT22;13256;49.012;8.610;2022-09-29T11:06:52;16.10;99.90
25320;DHT22;13256;49.012;8.610;2022-09-29T11:09:47;16.10;99.90
25320;DHT22;13256;49.012;8.610;2022-09-29T11:12:27;16.20;99.90
25320;DHT22;13256;49.012;8.610;2022-09-29T11:14:54;16.20;99.90
25320;DHT22;13256;49.012;8.610;2022-09-29T11:17:29;16.30;99.90
25320;DHT22;13256;49.012;8.610;2022-09-29T11:20:03;16.30;99.90
25320;DHT22;13256;49.012;8.610;2022-09-29T11:23:20;16.20;99.90
25320;DHT22;13256;49.012;8.610;2022-09-29T11:40:00;16.00;99.90
25320;DHT22;13256;49.012;8.610;2022-09-29T11:42:51;16.00;99.90
25320;DHT22;13256;49.012;8.610;2022-09-29T11:51:15;15.70;99.90
25320;DHT22;13256;49.012;8.610;2022-09-29T11:54:06;15.60;99.90
25320;DHT22;13256;49.012;8.610;2022-09-29T11:56:55;15.50;99.90
25320;DHT22;13256;49.012;8.610;2022-09-29T11:59:41;15.50;99.90
25320;DHT22;13256;49.012;8.610;2022-09-29T12:02:45;15.40;99.90
25320;DHT22;13256;49.012;8.610;2022-09-29T12:05:20;15.50;99.90
25320;DHT22;13256;49.012;8.610;2022-09-29T12:08:12;15.50;99.90
25320;DHT22;13256;49.012;8.610;2022-09-29T12:11:10;15.50;99.90
25320;DHT22;13256;49.012;8.610;2022-09-29T12:14:22;15.60;99.90
25320;DHT22;13256;49.012;8.610;2022-09-29T12:17:02;15.70;99.90
25320;DHT22;13256;49.012;8.610;2022-09-29T12:22:25;15.80;99.90
25320;DHT22;13256;49.012;8.610;2022-09-29T12:25:00;15.70;99.90
25320;DHT22;13256;49.012;8.610;2022-09-29T12:27:32;15.40;99.90
25320;DHT22;13256;49.012;8.610;2022-09-29T12:30:12;15.30;99.90
25320;DHT22;13256;49.012;8.610;2022-09-29T12:40:38;14.90;99.90
25320;DHT22;13256;49.012;8.610;2022-09-29T12:43:22;15.00;99.90
25320;DHT22;13256;49.012;8.610;2022-09-29T12:49:25;14.90;99.90
25320;DHT22;13256;49.012;8.610;2022-09-29T12:51:59;14.90;99.90
25320;DHT22;13256;49.012;8.610;2022-09-29T12:54:33;15.00;99.90
25320;DHT22;13256;49.012;8.610;2022-09-29T12:57:16;15.00;99.90
25320;DHT22;13256;49.012;8.610;2022-09-29T13:00:05;15.00;99.90
25320;DHT22;13256;49.012;8.610;2022-09-29T13:08:53;15.00;99.90
25320;DHT22;13256;49.012;8.610;2022-09-29T13:25:23;14.50;99.90
25320;DHT22;13256;49.012;8.610;2022-09-29T13:27:55;14.40;99.90
25320;DHT22;13256;49.012;8.610;2022-09-29T13:30:33;14.40;99.90
25320;DHT22;13256;49.012;8.610;2022-09-29T13:35:46;14.60;99.90
25320;DHT22;13256;49.012;8.610;2022-09-29T13:38:38;14.70;99.90
25320;DHT22;13256;49.012;8.610;2022-09-29T13:41:14;14.80;99.90
25320;DHT22;13256;49.012;8.610;2022-09-29T13:54:29;15.00;99.90
25320;DHT22;13256;49.012;8.610;2022-09-29T14:02:46;14.90;99.90
25320;DHT22;13256;49.012;8.610;2022-09-29T14:08:27;14.70;99.90
25320;DHT22;13256;49.012;8.610;2022-09-29T14:11:21;14.70;99.90
25320;DHT22;13256;49.012;8.610;2022-09-29T14:16:51;14.90;99.90
25320;DHT22;13256;49.012;8.610;2022-09-29T14:30:18;15.90;99.90
25320;DHT22;13256;49.012;8.610;2022-09-29T14:32:59;16.00;99.90
25320;DHT22;13256;49.012;8.610;2022-09-29T14:40:35;16.10;99.90
25320;DHT22;13256;49.012;8.610;2022-09-29T15:00:57;16.00;99.90
25320;DHT22;13256;49.012;8.610;2022-09-29T15:03:51;16.00;99.90
25320;DHT22;13256;49.012;8.610;2022-09-29T15:06:24;16.00;99.90
25320;DHT22;13256;49.012;8.610;2022-09-29T15:09:16;15.90;99.90
25320;DHT22;13256;49.012;8.610;2022-09-29T15:11:52;15.70;99.90
25320;DHT22;13256;49.012;8.610;2022-09-29T15:14:30;15.60;99.90
25320;DHT22;13256;49.012;8.610;2022-09-29T15:25:42;15.20;99.90
25320;DHT22;13256;49.012;8.610;2022-09-29T15:28:39;15.10;99.90
25320;DHT22;13256;49.012;8.610;2022-09-29T15:31:10;15.00;99.90
25320;DHT22;13256;49.012;8.610;2022-09-29T15:33:42;15.00;99.90
25320;DHT22;13256;49.012;8.610;2022-09-29T15:36:36;15.00;99.90
25320;DHT22;13256;49.012;8.610;2022-09-29T15:42:00;14.90;99.90
25320;DHT22;13256;49.012;8.610;2022-09-29T15:44:33;14.80;99.90
25320;DHT22;13256;49.012;8.610;2022-09-29T15:47:00;14.80;99.90
25320;DHT22;13256;49.012;8.610;2022-09-29T15:49:28;14.80;99.90
25320;DHT22;13256;49.012;8.610;2022-09-29T15:52:02;14.80;99.90
25320;DHT22;13256;49.012;8.610;2022-09-29T15:54:37;14.70;99.90
25320;DHT22;13256;49.012;8.610;2022-09-29T15:57:08;14.70;99.90
25320;DHT22;13256;49.012;8.610;2022-09-29T16:05:28;14.60;99.90
25320;DHT22;13256;49.012;8.610;2022-09-29T16:08:02;14.60;99.90
25320;DHT22;13256;49.012;8.610;2022-09-29T16:11:13;14.60;99.90
25320;DHT22;13256;49.012;8.610;2022-09-29T16:13:32;14.60;99.90
25320;DHT22;13256;49.012;8.610;2022-09-29T16:16:09;14.50;99.90
25320;DHT22;13256;49.012;8.610;2022-09-29T16:18:42;14.50;99.90
25320;DHT22;13256;49.012;8.610;2022-09-29T16:21:12;14.50;99.90
25320;DHT22;13256;49.012;8.610;2022-09-29T16:26:36;14.30;99.90
25320;DHT22;13256;49.012;8.610;2022-09-29T16:31:41;14.30;99.90
25320;DHT22;13256;49.012;8.610;2022-09-29T16:34:40;14.40;99.90
25320;DHT22;13256;49.012;8.610;2022-09-29T16:37:15;14.30;99.90
25320;DHT22;13256;49.012;8.610;2022-09-29T16:39:48;14.30;99.90
25320;DHT22;13256;49.012;8.610;2022-09-29T16:42:28;14.30;99.90
25320;DHT22;13256;49.012;8.610;2022-09-29T16:44:55;14.20;99.90
25320;DHT22;13256;49.012;8.610;2022-09-29T16:47:28;14.10;99.90
25320;DHT22;13256;49.012;8.610;2022-09-29T16:50:05;14.10;99.90
25320;DHT22;13256;49.012;8.610;2022-09-29T16:52:50;13.90;99.90
25320;DHT22;13256;49.012;8.610;2022-09-29T17:00:26;13.90;99.90
25320;DHT22;13256;49.012;8.610;2022-09-29T17:02:54;13.80;99.90
25320;DHT22;13256;49.012;8.610;2022-09-29T17:05:24;13.80;99.90
25320;DHT22;13256;49.012;8.610;2022-09-29T17:07:59;13.80;99.90
25320;DHT22;13256;49.012;8.610;2022-09-29T17:10:27;13.80;99.90
25320;DHT22;13256;49.012;8.610;2022-09-29T17:12:57;13.90;99.90
25320;DHT22;13256;49.012;8.610;2022-09-29T17:15:25;13.80;99.90
25320;DHT22;13256;49.012;8.610;2022-09-29T17:17:51;13.80;99.90
25320;DHT22;13256;49.012;8.610;2022-09-29T17:20:22;13.70;99.90
25320;DHT22;13256;49.012;8.610;2022-09-29T17:22:59;13.70;99.90
25320;DHT22;13256;49.012;8.610;2022-09-29T17:25:27;13.60;99.90
25320;DHT22;13256;49.012;8.610;2022-09-29T17:28:00;13.60;99.90
25320;DHT22;13256;49.012;8.610;2022-09-29T17:31:09;13.50;99.90
25320;DHT22;13256;49.012;8.610;2022-09-29T17:33:41;13.40;99.90
25320;DHT22;13256;49.012;8.610;2022-09-29T17:36:11;13.20;99.90
25320;DHT22;13256;49.012;8.610;2022-09-29T17:42:03;13.10;99.90
25320;DHT22;13256;49.012;8.610;2022-09-29T17:44:33;13.00;99.90
25320;DHT22;13256;49.012;8.610;2022-09-29T17:47:00;13.00;99.90
25320;DHT22;13256;49.012;8.610;2022-09-29T17:49:47;12.80;99.90
25320;DHT22;13256;49.012;8.610;2022-09-29T17:52:18;12.70;99.90
25320;DHT22;13256;49.012;8.610;2022-09-29T17:54:47;12.60;99.90
25320;DHT22;13256;49.012;8.610;2022-09-29T17:57:23;12.50;99.90
25320;DHT22;13256;49.012;8.610;2022-09-29T17:59:51;12.50;99.90
25320;DHT22;13256;49.012;8.610;2022-09-29T18:02:22;12.40;99.90
25320;DHT22;13256;49.012;8.610;2022-09-29T18:04:50;12.30;99.90
25320;DHT22;13256;49.012;8.610;2022-09-29T18:07:18;12.30;99.90
25320;DHT22;13256;49.012;8.610;2022-09-29T18:09:46;12.20;99.90
25320;DHT22;13256;49.012;8.610;2022-09-29T18:12:20;12.20;99.90
25320;DHT22;13256;49.012;8.610;2022-09-29T18:14:50;12.10;99.90
25320;DHT22;13256;49.012;8.610;2022-09-29T18:17:18;12.10;99.90
25320;DHT22;13256;49.012;8.610;2022-09-29T18:19:46;12.10;99.90
25320;DHT22;13256;49.012;8.610;2022-09-29T18:22:14;12.00;99.90
25320;DHT22;13256;49.012;8.610;2022-09-29T18:24:42;12.00;99.90
25320;DHT22;13256;49.012;8.610;2022-09-29T18:27:09;12.00;99.90
25320;DHT22;13256;49.012;8.610;2022-09-29T18:29:41;12.10;99.90
25320;DHT22;13256;49.012;8.610;2022-09-29T18:32:12;12.10;99.90
25320;DHT22;13256;49.012;8.610;2022-09-29T18:34:40;12.10;99.90
25320;DHT22;13256;49.012;8.610;2022-09-29T18:37:07;12.10;99.90
25320;DHT22;13256;49.012;8.610;2022-09-29T18:39:34;12.10;99.90
25320;DHT22;13256;49.012;8.610;2022-09-29T18:42:01;12.10;99.90
25320;DHT22;13256;49.012;8.610;2022-09-29T18:44:28;12.10;99.90
25320;DHT22;13256;49.012;8.610;2022-09-29T18:47:01;12.10;99.90
25320;DHT22;13256;49.012;8.610;2022-09-29T18:49:28;12.10;99.90
25320;DHT22;13256;49.012;8.610;2022-09-29T18:51:54;12.10;99.90
25320;DHT22;13256;49.012;8.610;2022-09-29T18:54:26;12.10;99.90
25320;DHT22;13256;49.012;8.610;2022-09-29T18:56:55;12.00;99.90
25320;DHT22;13256;49.012;8.610;2022-09-29T18:59:22;12.00;99.90
25320;DHT22;13256;49.012;8.610;2022-09-29T19:01:49;12.00;99.90
25320;DHT22;13256;49.012;8.610;2022-09-29T19:04:18;12.00;99.90
25320;DHT22;13256;49.012;8.610;2022-09-29T19:06:46;12.00;99.90
25320;DHT22;13256;49.012;8.610;2022-09-29T19:09:18;11.90;99.90
25320;DHT22;13256;49.012;8.610;2022-09-29T19:11:58;11.90;99.90
25320;DHT22;13256;49.012;8.610;2022-09-29T19:14:25;11.90;99.90
25320;DHT22;13256;49.012;8.610;2022-09-29T19:16:52;11.80;99.90
25320;DHT22;13256;49.012;8.610;2022-09-29T19:19:22;11.70;99.90
25320;DHT22;13256;49.012;8.610;2022-09-29T19:21:55;11.70;99.90
25320;DHT22;13256;49.012;8.610;2022-09-29T19:24:22;11.60;99.90
25320;DHT22;13256;49.012;8.610;2022-09-29T19:26:50;11.60;99.90
25320;DHT22;13256;49.012;8.610;2022-09-29T19:29:16;11.50;99.90
25320;DHT22;13256;49.012;8.610;2022-09-29T19:31:45;11.40;99.90
25320;DHT22;13256;49.012;8.610;2022-09-29T19:34:12;11.40;99.90
25320;DHT22;13256;49.012;8.610;2022-09-29T19:36:39;11.30;99.90
25320;DHT22;13256;49.012;8.610;2022-09-29T19:39:12;11.20;99.90
25320;DHT22;13256;49.012;8.610;2022-09-29T19:41:43;11.20;99.90
25320;DHT22;13256;49.012;8.610;2022-09-29T19:44:13;11.20;99.90
25320;DHT22;13256;49.012;8.610;2022-09-29T19:46:42;11.10;99.90
25320;DHT22;13256;49.012;8.610;2022-09-29T19:49:15;11.10;99.90
25320;DHT22;13256;49.012;8.610;2022-09-29T19:51:42;11.10;99.90
25320;DHT22;13256;49.012;8.610;2022-09-29T19:54:15;11.10;99.90